createdAt,value
2018-04-28T00:02:24.033Z,9.50
2018-04-28T00:04:50.860Z,12.93
2018-04-28T00:07:17.754Z,12.27
2018-04-28T00:09:45.279Z,16.47
2018-04-28T00:12:12.100Z,11.20
2018-04-28T00:14:38.894Z,12.10
2018-04-28T00:17:05.906Z,9.93
2018-04-28T00:19:34.660Z,10.33
2018-04-28T00:22:07.736Z,8.43
2018-04-28T00:24:35.334Z,10.83
2018-04-28T00:27:02.103Z,16.27
2018-04-28T00:29:28.946Z,10.57
2018-04-28T00:31:55.797Z,10.73
2018-04-28T00:34:22.596Z,11.70
2018-04-28T00:36:59.345Z,12.43
2018-04-28T00:39:26.107Z,10.23
2018-04-28T00:41:53.642Z,12.03
2018-04-28T00:44:21.192Z,13.70
2018-04-28T00:46:50.924Z,12.90
2018-04-28T00:49:17.735Z,12.33
2018-04-28T00:51:49.278Z,11.90
2018-04-28T00:54:16.077Z,9.93
2018-04-28T00:56:50.282Z,10.17
2018-04-28T00:59:17.884Z,11.10
2018-04-28T01:01:44.754Z,12.93
2018-04-28T01:04:16.792Z,11.87
2018-04-28T01:06:43.652Z,12.30
2018-04-28T01:09:10.523Z,8.80
2018-04-28T01:11:37.333Z,15.23
2018-04-28T01:14:10.100Z,11.67
2018-04-28T01:16:36.899Z,10.23
2018-04-28T01:19:09.712Z,10.73
2018-04-28T01:21:37.465Z,9.83
2018-04-28T01:24:17.081Z,8.83
2018-04-28T01:26:44.461Z,11.60
2018-04-28T01:29:27.290Z,14.17
2018-04-28T01:31:55.165Z,10.87
2018-04-28T01:34:24.943Z,13.90
2018-04-28T01:36:51.814Z,12.33
2018-04-28T01:39:18.629Z,12.17
2018-04-28T01:41:51.300Z,11.67
2018-04-28T01:44:18.897Z,14.90
2018-04-28T01:46:49.288Z,11.73
2018-04-28T01:49:18.050Z,13.60
2018-04-28T01:51:54.945Z,9.50
2018-04-28T01:54:36.617Z,12.30
2018-04-28T01:57:24.222Z,11.67
2018-04-28T02:00:10.916Z,17.50
2018-04-28T02:02:44.021Z,15.83
2018-04-28T02:05:26.019Z,12.83
2018-04-28T02:07:52.886Z,12.20
2018-04-28T02:10:35.323Z,11.23
2018-04-28T02:13:04.989Z,14.03
2018-04-28T02:15:32.348Z,17.53
2018-04-28T02:18:12.316Z,12.50
2018-04-28T02:20:39.920Z,16.33
2018-04-28T02:23:11.274Z,20.10
2018-04-28T02:25:40.651Z,17.07
2018-04-28T02:28:13.264Z,17.67
2018-04-28T02:30:41.027Z,15.30
2018-04-28T02:33:07.876Z,14.27
2018-04-28T02:35:36.447Z,13.90
2018-04-28T02:38:18.154Z,17.40
2018-04-28T02:40:59.825Z,18.63
2018-04-28T02:43:27.428Z,13.87
2018-04-28T02:45:54.252Z,12.93
2018-04-28T02:48:40.622Z,16.20
2018-04-28T02:51:23.877Z,11.83
2018-04-28T02:53:51.245Z,13.53
2018-04-28T02:56:24.049Z,16.73
2018-04-28T02:58:51.068Z,14.13
2018-04-28T03:01:19.585Z,14.60
2018-04-28T03:03:46.391Z,17.43
2018-04-28T03:06:15.122Z,17.87
2018-04-28T03:08:42.885Z,17.93
2018-04-28T03:11:09.711Z,15.10
2018-04-28T03:13:51.586Z,15.53
2018-04-28T03:16:24.181Z,17.87
2018-04-28T03:18:51.016Z,17.37
2018-04-28T03:21:17.821Z,21.07
2018-04-28T03:23:59.515Z,13.93
2018-04-28T03:26:27.330Z,14.17
2018-04-28T03:28:57.937Z,16.80
2018-04-28T03:31:29.359Z,15.63
2018-04-28T03:34:11.513Z,16.87
2018-04-28T03:36:40.139Z,16.63
2018-04-28T03:39:09.820Z,18.90
2018-04-28T03:41:36.652Z,15.60
2018-04-28T03:44:04.250Z,18.23
2018-04-28T03:46:34.860Z,15.37
2018-04-28T03:49:01.679Z,17.63
2018-04-28T03:51:29.310Z,16.47
2018-04-28T03:53:56.869Z,18.03
2018-04-28T03:56:28.562Z,16.10
2018-04-28T03:59:01.771Z,13.93
2018-04-28T04:01:34.450Z,16.53
2018-04-28T04:04:05.045Z,16.07
2018-04-28T04:06:33.780Z,16.90
2018-04-28T04:09:13.341Z,20.10
2018-04-28T04:11:43.124Z,17.37
2018-04-28T04:14:15.905Z,16.17
2018-04-28T04:16:46.156Z,19.50
2018-04-28T04:19:13.032Z,21.50
2018-04-28T04:21:42.624Z,13.13
2018-04-28T04:24:14.228Z,13.80
2018-04-28T04:26:55.989Z,15.57
2018-04-28T04:29:23.991Z,12.80
2018-04-28T04:31:54.156Z,14.90
2018-04-28T04:34:21.032Z,17.67
2018-04-28T04:36:53.703Z,15.70
2018-04-28T04:39:35.388Z,13.83
2018-04-28T04:42:08.134Z,15.27
2018-04-28T04:44:37.852Z,12.70
2018-04-28T04:47:13.485Z,11.43
2018-04-28T04:49:56.047Z,12.97
2018-04-28T04:52:28.692Z,11.43
2018-04-28T04:55:10.359Z,14.63
2018-04-28T04:57:43.057Z,11.80
2018-04-28T05:00:27.685Z,11.17
2018-04-28T05:03:10.114Z,12.00
2018-04-28T05:05:51.796Z,11.17
2018-04-28T05:08:35.028Z,9.43
2018-04-28T05:11:07.796Z,10.60
2018-04-28T05:13:38.548Z,8.73
2018-04-28T05:16:11.717Z,9.27
2018-04-28T05:18:57.280Z,9.93
2018-04-28T05:21:25.068Z,10.60
2018-04-28T05:23:57.900Z,9.40
2018-04-28T05:26:25.595Z,10.90
2018-04-28T05:29:07.300Z,7.87
2018-04-28T05:31:39.989Z,10.97
2018-04-28T05:34:13.238Z,14.03
2018-04-28T05:36:47.076Z,10.53
2018-04-28T05:39:22.088Z,9.17
2018-04-28T05:41:55.412Z,8.00
2018-04-28T05:44:27.421Z,12.27
2018-04-28T05:47:00.458Z,9.93
2018-04-28T05:49:33.073Z,10.27
2018-04-28T05:52:00.869Z,9.57
2018-04-28T05:54:33.515Z,8.30
2018-04-28T05:57:06.308Z,8.30
2018-04-28T05:59:38.922Z,9.95
2018-04-28T06:15:24.609Z,8.10
2018-04-28T06:17:57.295Z,7.97
2018-04-28T06:20:30.688Z,8.10
2018-04-28T06:22:57.453Z,6.83
2018-04-28T06:25:24.870Z,9.83
2018-04-28T06:27:52.007Z,8.97
2018-04-28T06:30:18.914Z,11.27
2018-04-28T06:32:46.495Z,10.13
2018-04-28T06:35:13.378Z,7.33
2018-04-28T06:37:40.699Z,7.23
2018-04-28T06:40:08.237Z,7.40
2018-04-28T06:42:35.080Z,8.13
2018-04-28T06:45:01.854Z,7.57
2018-04-28T06:47:28.681Z,6.70
2018-04-28T06:49:55.666Z,6.63
2018-04-28T06:52:23.416Z,6.23
2018-04-28T06:54:50.619Z,9.23
2018-04-28T06:57:19.538Z,9.37
2018-04-28T06:59:46.797Z,10.43
2018-04-28T07:02:13.681Z,6.90
2018-04-28T07:04:40.769Z,7.50
2018-04-28T07:07:07.584Z,6.20
2018-04-28T07:09:35.261Z,7.10
2018-04-28T07:12:02.131Z,6.73
2018-04-28T07:14:28.992Z,5.93
2018-04-28T07:16:56.518Z,7.73
2018-04-28T07:19:23.332Z,10.33
2018-04-28T07:21:50.132Z,6.80
2018-04-28T07:24:17.044Z,12.67
2018-04-28T07:26:43.844Z,6.80
2018-04-28T07:29:10.745Z,6.30
2018-04-28T07:31:38.283Z,6.73
2018-04-28T07:34:09.445Z,10.30
2018-04-28T07:36:36.337Z,9.17
2018-04-28T07:39:03.839Z,5.43
2018-04-28T07:41:31.730Z,6.30
2018-04-28T07:43:58.526Z,6.37
2018-04-28T07:46:25.324Z,8.93
2018-04-28T07:48:52.155Z,4.90
2018-04-28T07:51:18.975Z,4.83
2018-04-28T07:53:46.888Z,8.50
2018-04-28T07:56:13.718Z,13.90
2018-04-28T07:58:40.925Z,5.00
2018-04-28T08:01:07.752Z,9.03
2018-04-28T08:03:34.631Z,3.87
2018-04-28T08:06:02.287Z,3.83
2018-04-28T08:08:29.119Z,6.60
2018-04-28T08:10:55.970Z,5.27
2018-04-28T08:13:22.761Z,4.33
2018-04-28T08:15:49.560Z,7.83
2018-04-28T08:18:16.419Z,4.83
2018-04-28T08:20:46.017Z,4.67
2018-04-28T08:23:12.895Z,8.40
2018-04-28T08:25:39.695Z,8.80
2018-04-28T08:28:07.728Z,3.07
2018-04-28T08:30:34.518Z,3.77
2018-04-28T08:33:01.486Z,7.70
2018-04-28T08:35:28.290Z,6.07
2018-04-28T08:38:05.217Z,11.47
2018-04-28T08:40:32.187Z,3.63
2018-04-28T08:42:58.962Z,5.53
2018-04-28T08:45:25.871Z,5.20
2018-04-28T08:47:53.547Z,3.13
2018-04-28T08:50:20.381Z,8.17
2018-04-28T08:52:47.226Z,4.40
2018-04-28T08:55:14.092Z,4.13
2018-04-28T08:57:40.908Z,3.77
2018-04-28T09:00:13.595Z,4.30
2018-04-28T09:02:40.370Z,8.57
2018-04-28T09:05:07.210Z,3.77
2018-04-28T09:07:37.852Z,4.30
2018-04-28T09:10:04.748Z,6.57
2018-04-28T09:12:32.224Z,5.30
2018-04-28T09:14:59.052Z,3.67
2018-04-28T09:17:25.863Z,6.90
2018-04-28T09:19:53.404Z,5.90
2018-04-28T09:22:20.147Z,4.47
2018-04-28T09:24:46.953Z,3.07
2018-04-28T09:27:13.728Z,5.37
2018-04-28T09:29:40.557Z,6.37
2018-04-28T09:32:07.299Z,9.70
2018-04-28T09:34:34.204Z,5.40
2018-04-28T09:37:00.989Z,3.20
2018-04-28T09:39:27.727Z,3.47
2018-04-28T09:41:54.495Z,8.93
2018-04-28T09:44:21.324Z,3.20
2018-04-28T09:46:48.423Z,4.20
2018-04-28T09:49:15.417Z,8.87
2018-04-28T09:51:42.279Z,5.47
2018-04-28T09:54:09.050Z,7.33
2018-04-28T09:56:35.808Z,5.83
2018-04-28T09:59:02.627Z,5.77
2018-04-28T10:01:35.362Z,4.30
2018-04-28T10:04:02.139Z,4.07
2018-04-28T10:06:28.914Z,6.23
2018-04-28T10:08:55.654Z,12.73
2018-04-28T10:11:22.431Z,5.40
2018-04-28T10:13:49.187Z,5.80
2018-04-28T10:16:16.004Z,6.10
2018-04-28T10:18:42.771Z,2.63
2018-04-28T10:21:09.579Z,5.57
2018-04-28T10:23:36.793Z,5.97
2018-04-28T10:26:03.579Z,5.77
2018-04-28T10:28:31.034Z,2.67
2018-04-28T10:30:57.783Z,7.20
2018-04-28T10:33:25.149Z,4.70
2018-04-28T10:35:52.587Z,3.20
2018-04-28T10:38:19.307Z,6.40
2018-04-28T10:40:46.066Z,4.10
2018-04-28T10:43:12.816Z,6.30
2018-04-28T10:45:39.607Z,3.27
2018-04-28T10:48:06.409Z,4.57
2018-04-28T10:50:33.182Z,3.83
2018-04-28T10:52:59.971Z,4.20
2018-04-28T10:55:26.740Z,14.27
2018-04-28T10:57:53.486Z,4.67
2018-04-28T11:07:05.612Z,5.00
2018-04-28T11:09:32.378Z,3.23
2018-04-28T11:11:59.146Z,4.50
2018-04-28T11:14:25.949Z,3.23
2018-04-28T11:16:52.698Z,2.43
2018-04-28T11:19:20.172Z,3.90
2018-04-28T11:21:47.021Z,6.77
2018-04-28T11:24:13.846Z,6.33
2018-04-28T11:26:41.358Z,6.07
2018-04-28T11:29:08.132Z,3.47
2018-04-28T11:31:35.019Z,4.93
2018-04-28T11:34:01.885Z,5.53
2018-04-28T11:36:28.780Z,5.93
2018-04-28T11:38:56.387Z,3.80
2018-04-28T11:41:23.496Z,2.77
2018-04-28T11:43:50.252Z,2.00
2018-04-28T11:46:17.027Z,6.30
2018-04-28T11:48:43.890Z,2.57
2018-04-28T11:51:10.699Z,4.10
2018-04-28T11:53:37.450Z,5.93
2018-04-28T11:56:04.223Z,7.37
2018-04-28T11:58:31.678Z,4.55
2018-04-28T12:00:58.423Z,3.58
2018-04-28T12:03:25.217Z,2.40
2018-04-28T12:05:52.086Z,3.47
2018-04-28T12:08:18.735Z,2.60
2018-04-28T12:10:45.487Z,4.85
2018-04-28T12:13:12.321Z,4.47
2018-04-28T12:15:39.106Z,2.92
2018-04-28T12:18:05.820Z,4.37
2018-04-28T12:20:33.757Z,3.45
2018-04-28T12:23:01.231Z,6.32
2018-04-28T12:25:28.028Z,4.25
2018-04-28T12:27:55.594Z,2.72
2018-04-28T12:30:22.390Z,2.47
2018-04-28T12:32:49.173Z,4.75
2018-04-28T12:35:15.928Z,3.28
2018-04-28T12:37:42.737Z,3.45
2018-04-28T12:40:09.509Z,3.35
2018-04-28T12:42:36.242Z,3.10
2018-04-28T12:45:02.970Z,3.85
2018-04-28T12:47:29.759Z,4.93
2018-04-28T12:49:56.533Z,2.30
2018-04-28T12:52:23.278Z,5.87
2018-04-28T12:54:50.111Z,4.25
2018-04-28T12:57:16.905Z,5.60
2018-04-28T12:59:43.717Z,9.10
2018-04-28T13:02:10.436Z,3.70
2018-04-28T13:04:37.227Z,7.05
2018-04-28T13:07:04.522Z,5.32
2018-04-28T13:09:31.516Z,3.12
2018-04-28T13:11:59.078Z,3.03
2018-04-28T13:14:27.458Z,5.00
2018-04-28T13:16:55.248Z,6.97
2018-04-28T13:19:23.464Z,7.40
2018-04-28T13:21:50.456Z,3.40
2018-04-28T13:24:18.002Z,9.43
2018-04-28T13:26:44.815Z,10.80
2018-04-28T13:29:11.613Z,4.90
2018-04-28T13:31:38.460Z,4.40
2018-04-28T13:34:05.226Z,3.97
2018-04-28T13:36:31.999Z,3.35
2018-04-28T13:38:58.771Z,3.95
2018-04-28T13:41:25.677Z,5.55
2018-04-28T13:43:52.431Z,3.37
2018-04-28T13:46:19.196Z,3.37
2018-04-28T13:48:46.762Z,3.50
2018-04-28T13:51:13.691Z,4.25
2018-04-28T13:53:41.230Z,4.30
2018-04-28T13:56:08.099Z,4.47
2018-04-28T13:58:35.579Z,4.72
2018-04-28T14:01:02.650Z,7.53
2018-04-28T14:03:29.462Z,4.43
2018-04-28T14:05:56.289Z,3.58
2018-04-28T14:08:23.040Z,3.95
2018-04-28T14:10:49.872Z,3.78
2018-04-28T14:13:16.733Z,5.68
2018-04-28T14:15:43.844Z,3.75
2018-04-28T14:18:11.455Z,7.18
2018-04-28T14:20:38.755Z,5.50
2018-04-28T14:23:05.710Z,3.25
2018-04-28T14:25:32.482Z,3.22
2018-04-28T14:27:59.223Z,4.20
2018-04-28T14:30:25.995Z,7.97
2018-04-28T14:32:52.756Z,4.40
2018-04-28T14:35:20.246Z,5.85
2018-04-28T14:37:47.015Z,4.28
2018-04-28T14:40:13.758Z,3.08
2018-04-28T14:42:40.575Z,8.13
2018-04-28T14:45:07.400Z,4.00
2018-04-28T14:47:34.208Z,3.80
2018-04-28T14:50:01.045Z,2.97
2018-04-28T14:52:37.928Z,5.35
2018-04-28T14:55:04.679Z,3.28
2018-04-28T14:57:31.462Z,3.37
2018-04-28T14:59:58.279Z,6.32
2018-04-28T15:02:25.079Z,3.60
2018-04-28T15:04:52.411Z,6.85
2018-04-28T15:07:19.561Z,13.88
2018-04-28T15:09:46.427Z,4.62
2018-04-28T15:12:13.156Z,4.70
2018-04-28T15:14:39.882Z,3.90
2018-04-28T15:17:06.634Z,7.28
2018-04-28T15:19:33.621Z,5.03
2018-04-28T15:22:01.289Z,4.93
2018-04-28T15:24:28.064Z,4.35
2018-04-28T15:26:54.863Z,13.27
2018-04-28T15:29:21.671Z,6.75
2018-04-28T15:31:48.417Z,4.40
2018-04-28T15:34:15.355Z,4.25
2018-04-28T15:36:42.091Z,3.28
2018-04-28T15:39:08.834Z,3.10
2018-04-28T15:41:35.916Z,8.40
2018-04-28T15:44:02.705Z,10.52
2018-04-28T15:46:29.463Z,6.78
2018-04-28T15:48:56.230Z,8.95
2018-04-28T15:51:23.065Z,4.32
2018-04-28T15:53:49.825Z,7.00
2018-04-28T15:56:16.558Z,4.00
2018-04-28T15:58:43.324Z,3.53
2018-04-28T16:01:10.189Z,5.55
2018-04-28T16:03:36.975Z,10.65
2018-04-28T16:06:04.567Z,9.85
2018-04-28T16:08:31.451Z,4.80
2018-04-28T16:10:58.252Z,5.28
2018-04-28T16:13:25.768Z,4.57
2018-04-28T16:15:53.027Z,5.32
2018-04-28T16:18:20.799Z,6.78
2018-04-28T16:20:47.528Z,3.35
2018-04-28T16:23:14.633Z,29.87
2018-04-28T16:25:41.565Z,3.50
2018-04-28T16:28:09.183Z,5.22
2018-04-28T16:30:35.928Z,6.50
2018-04-28T16:33:03.000Z,5.03
2018-04-28T16:35:29.826Z,3.60
2018-04-28T16:37:56.639Z,3.73
2018-04-28T16:40:23.419Z,6.60
2018-04-28T16:42:50.173Z,3.97
2018-04-28T16:45:16.940Z,4.83
2018-04-28T16:47:43.707Z,5.23
2018-04-28T16:50:10.455Z,6.40
2018-04-28T16:52:37.207Z,8.40
2018-04-28T16:55:04.020Z,4.40
2018-04-28T16:57:30.777Z,7.03
2018-04-28T16:59:57.543Z,4.50
2018-04-28T17:02:24.787Z,6.67
2018-04-28T17:04:51.583Z,6.40
2018-04-28T17:07:18.435Z,9.97
2018-04-28T17:09:45.178Z,10.63
2018-04-28T17:12:11.957Z,5.27
2018-04-28T17:14:38.752Z,9.37
2018-04-28T17:17:05.577Z,6.97
2018-04-28T17:19:32.375Z,10.23
2018-04-28T17:21:59.131Z,5.90
2018-04-28T17:24:25.922Z,5.60
2018-04-28T17:26:52.658Z,5.07
2018-04-28T17:29:19.509Z,8.43
2018-04-28T17:31:47.033Z,4.87
2018-04-28T17:34:14.533Z,8.20
2018-04-28T17:36:41.321Z,8.90
2018-04-28T17:39:08.093Z,8.60
2018-04-28T17:41:34.916Z,11.33
2018-04-28T17:44:01.689Z,7.50
2018-04-28T17:46:28.488Z,6.07
2018-04-28T17:49:05.214Z,9.80
2018-04-28T17:51:32.029Z,5.03
2018-04-28T17:53:59.376Z,7.77
2018-04-28T17:56:26.193Z,8.00
2018-04-28T17:58:53.008Z,11.33
2018-04-28T18:01:19.949Z,7.57
2018-04-28T18:03:47.105Z,6.40
2018-04-28T18:06:13.892Z,8.00
2018-04-28T18:08:40.727Z,14.53
2018-04-28T18:11:07.525Z,12.17
2018-04-28T18:13:34.275Z,7.87
2018-04-28T18:16:01.164Z,13.10
2018-04-28T18:18:27.960Z,8.10
2018-04-28T18:20:54.715Z,12.50
2018-04-28T18:23:21.505Z,7.13
2018-04-28T18:25:48.611Z,13.93
2018-04-28T18:28:15.415Z,11.00
2018-04-28T18:30:42.189Z,8.37
2018-04-28T18:33:09.007Z,7.67
2018-04-28T18:35:36.343Z,8.27
2018-04-28T18:38:03.120Z,6.67
2018-04-28T18:40:29.922Z,9.40
2018-04-28T18:42:56.671Z,12.03
2018-04-28T18:45:23.470Z,18.63
2018-04-28T18:47:50.321Z,22.30
2018-04-28T18:50:18.215Z,12.50
2018-04-28T18:52:45.600Z,16.30
2018-04-28T18:55:12.489Z,19.77
2018-04-28T18:57:39.323Z,15.47
2018-04-28T19:00:07.267Z,9.37
2018-04-28T19:02:34.025Z,19.83
2018-04-28T19:05:00.908Z,16.47
2018-04-28T19:07:28.594Z,14.77
2018-04-28T19:09:55.386Z,18.70
2018-04-28T19:12:22.255Z,7.83
2018-04-28T19:14:49.048Z,9.67
2018-04-28T19:17:15.839Z,7.67
2018-04-28T19:19:43.437Z,12.80
2018-04-28T19:22:10.567Z,12.97
2018-04-28T19:24:38.181Z,11.10
2018-04-28T19:27:04.971Z,9.27
2018-04-28T19:29:31.748Z,7.43
2018-04-28T19:31:59.233Z,11.50
2018-04-28T19:34:26.498Z,11.23
2018-04-28T19:36:53.339Z,9.33
2018-04-28T19:39:20.178Z,14.67
2018-04-28T19:41:46.984Z,9.33
2018-04-28T19:44:13.778Z,18.27
2018-04-28T19:46:40.641Z,11.47
2018-04-28T19:49:13.531Z,11.20
2018-04-28T19:51:40.560Z,12.43
2018-04-28T19:54:07.344Z,10.03
2018-04-28T19:56:34.178Z,12.03
2018-04-28T19:59:00.962Z,11.73
2018-04-28T20:01:27.805Z,12.53
2018-04-28T20:03:55.119Z,14.23
2018-04-28T20:06:25.391Z,17.73
2018-04-28T20:08:52.176Z,15.33
2018-04-28T20:11:19.073Z,15.70
2018-04-28T20:13:45.925Z,11.60
2018-04-28T20:16:12.741Z,14.00
2018-04-28T20:18:39.561Z,18.83
2018-04-28T20:21:06.410Z,14.53
2018-04-28T20:23:39.156Z,14.67
2018-04-28T20:26:06.280Z,14.37
2018-04-28T20:28:33.733Z,11.57
2018-04-28T20:31:00.557Z,11.97
2018-04-28T20:33:27.332Z,13.27
2018-04-28T20:35:54.899Z,12.47
2018-04-28T20:38:22.542Z,19.47
2018-04-28T20:40:49.354Z,12.40
2018-04-28T20:43:16.519Z,14.30
2018-04-28T20:45:43.273Z,10.30
2018-04-28T20:48:11.106Z,14.33
2018-04-28T20:50:38.868Z,14.90
2018-04-28T20:53:06.699Z,17.37
2018-04-28T20:55:34.161Z,15.77
2018-04-28T20:58:02.109Z,16.57
2018-04-28T21:00:28.879Z,18.63
2018-04-28T21:02:55.754Z,20.80
2018-04-28T21:05:22.621Z,21.00
2018-04-28T21:07:49.967Z,17.77
2018-04-28T21:10:16.783Z,16.73
2018-04-28T21:12:44.210Z,17.83
2018-04-28T21:15:11.290Z,20.67
2018-04-28T21:17:38.938Z,18.40
2018-04-28T21:20:09.145Z,17.97
2018-04-28T21:22:36.045Z,14.87
2018-04-28T21:25:07.431Z,20.00
2018-04-28T21:27:42.156Z,16.03
2018-04-28T21:30:09.000Z,18.20
2018-04-28T21:32:35.769Z,15.07
2018-04-28T21:35:03.216Z,13.03
2018-04-28T21:37:30.117Z,17.43
2018-04-28T21:39:57.595Z,15.60
2018-04-28T21:42:24.964Z,18.47
2018-04-28T21:44:51.855Z,15.10
2018-04-28T21:47:19.334Z,16.93
2018-04-28T21:49:56.075Z,15.43
2018-04-28T21:52:22.956Z,18.30
2018-04-28T21:54:50.174Z,16.87
2018-04-28T21:57:17.009Z,19.30
2018-04-28T21:59:43.840Z,17.37
2018-04-28T22:02:10.686Z,19.80
2018-04-28T22:04:37.550Z,15.67
2018-04-28T22:07:04.444Z,20.43
2018-04-28T22:09:31.224Z,14.23
2018-04-28T22:11:58.735Z,17.30
2018-04-28T22:14:25.520Z,18.03
2018-04-28T22:16:52.379Z,16.57
2018-04-28T22:19:19.233Z,18.50
2018-04-28T22:21:46.219Z,18.73
2018-04-28T22:24:13.020Z,19.80
2018-04-28T22:26:39.858Z,35.30
2018-04-28T22:29:06.722Z,40.03
2018-04-28T22:31:34.333Z,30.70
2018-04-28T22:34:01.101Z,29.90
2018-04-28T22:36:27.987Z,33.30
2018-04-28T22:38:54.894Z,31.13
2018-04-28T22:41:22.312Z,29.37
2018-04-28T22:43:49.100Z,26.63
2018-04-28T22:46:16.009Z,26.60
2018-04-28T22:48:42.884Z,24.93
2018-04-28T22:51:09.692Z,24.83
2018-04-28T22:53:36.629Z,23.37
2018-04-28T22:56:03.470Z,24.00
2018-04-28T22:58:30.623Z,23.53
2018-04-28T23:00:57.516Z,19.13
2018-04-28T23:03:24.317Z,24.03
2018-04-28T23:05:51.172Z,24.07
2018-04-28T23:08:18.052Z,19.37
2018-04-28T23:10:54.824Z,19.60
2018-04-28T23:13:22.349Z,21.20
2018-04-28T23:15:49.373Z,15.57
2018-04-28T23:18:16.145Z,15.10
2018-04-28T23:20:42.963Z,15.27
2018-04-28T23:23:09.868Z,14.17
2018-04-28T23:25:36.743Z,14.80
2018-04-28T23:28:03.508Z,19.77
2018-04-28T23:30:30.412Z,15.37
2018-04-28T23:33:10.045Z,14.33
2018-04-28T23:35:36.858Z,15.37
2018-04-28T23:38:03.669Z,21.17
2018-04-28T23:40:31.206Z,13.97
2018-04-28T23:42:58.003Z,22.63
2018-04-28T23:45:24.766Z,17.00
2018-04-28T23:47:51.616Z,16.20
2018-04-28T23:50:18.509Z,15.73
2018-04-28T23:52:45.397Z,17.27
2018-04-28T23:55:13.221Z,19.40
2018-04-28T23:57:39.985Z,15.63
